createdAt,value
2023-05-21T00:00:08.491Z,97815.88
2023-05-21T00:02:43.183Z,97815.34
2023-05-21T00:05:15.637Z,97822.63
2023-05-21T00:07:46.020Z,97820.38
2023-05-21T00:10:16.702Z,97816.09
2023-05-21T00:12:50.208Z,97817.06
2023-05-21T00:15:22.846Z,97818.56
2023-05-21T00:17:53.286Z,97819.41
2023-05-21T00:20:23.660Z,97819.25
2023-05-21T00:22:54.211Z,97816.06
2023-05-21T00:25:24.657Z,97810.69
2023-05-21T00:27:58.307Z,97816.19
2023-05-21T00:30:28.738Z,97810.97
2023-05-21T00:33:02.739Z,97811.91
2023-05-21T00:35:33.678Z,97800.53
2023-05-21T00:38:05.197Z,97799.28
2023-05-21T00:40:35.906Z,97799.44
2023-05-21T00:43:10.834Z,97793.66
2023-05-21T00:45:41.368Z,97795.16
2023-05-21T00:48:11.786Z,97794.47
2023-05-21T00:50:42.757Z,97781.53
2023-05-21T00:53:19.445Z,97788.13
2023-05-21T00:55:50.285Z,97789.78
2023-05-21T00:58:23.705Z,97788.38
2023-05-21T01:00:58.850Z,97786.75
2023-05-21T01:03:29.525Z,97773.56
2023-05-21T01:06:00.932Z,97781.78
2023-05-21T01:08:32.377Z,97786.44
2023-05-21T01:11:04.209Z,97785.47
2023-05-21T01:13:42.605Z,97787.41
2023-05-21T01:16:14.810Z,97782.56
2023-05-21T01:18:45.489Z,97785.53
2023-05-21T01:21:17.598Z,97779.88
2023-05-21T01:23:50.841Z,97777.78
2023-05-21T01:26:22.371Z,97778.63
2023-05-21T01:28:53.029Z,97775.91
2023-05-21T01:31:43.222Z,97779.97
2023-05-21T01:34:16.924Z,97776.94
2023-05-21T01:36:59.033Z,97774.59
2023-05-21T01:39:42.928Z,97773.06
2023-05-21T01:42:14.388Z,97778.16
2023-05-21T01:44:46.299Z,97770.34
2023-05-21T01:47:17.618Z,97777.47
2023-05-21T01:49:48.565Z,97772.38
2023-05-21T01:52:19.452Z,97774.16
2023-05-21T01:54:54.669Z,97769.22
2023-05-21T01:57:25.376Z,97771.81
2023-05-21T01:59:56.396Z,97772.75
2023-05-21T02:02:26.868Z,97767.81
2023-05-21T02:04:57.526Z,97769.88
2023-05-21T02:07:29.110Z,97766.94
2023-05-21T02:10:02.262Z,97759.13
2023-05-21T02:12:32.844Z,97764.47
2023-05-21T02:15:04.716Z,97758.41
2023-05-21T02:17:36.334Z,97761.97
2023-05-21T02:20:11.698Z,97768.00
2023-05-21T02:22:42.317Z,97762.50
2023-05-21T02:25:18.581Z,97763.00
2023-05-21T02:27:54.217Z,97754.22
2023-05-21T02:30:24.606Z,97762.06
2023-05-21T02:32:55.072Z,97750.69
2023-05-21T02:35:25.617Z,97754.63
2023-05-21T02:37:59.218Z,97760.47
2023-05-21T02:40:33.416Z,97755.78
2023-05-21T02:43:03.754Z,97757.00
2023-05-21T02:45:35.952Z,97756.53
2023-05-21T02:48:07.006Z,97756.53
2023-05-21T02:50:41.904Z,97758.47
2023-05-21T02:53:13.325Z,97752.97
2023-05-21T02:55:46.465Z,97760.34
2023-05-21T02:58:17.800Z,97758.69
2023-05-21T03:00:48.164Z,97751.13
2023-05-21T03:03:21.506Z,97758.94
2023-05-21T03:05:53.260Z,97750.69
2023-05-21T03:08:25.055Z,97751.53
2023-05-21T03:10:58.276Z,97744.78
2023-05-21T03:13:28.681Z,97742.31
2023-05-21T03:15:59.195Z,97734.59
2023-05-21T03:18:29.605Z,97739.09
2023-05-21T03:21:00.270Z,97737.47
2023-05-21T03:23:30.678Z,97735.09
2023-05-21T03:26:03.704Z,97733.47
2023-05-21T03:28:34.693Z,97740.56
2023-05-21T03:31:06.085Z,97735.47
2023-05-21T03:33:40.091Z,97734.78
2023-05-21T03:36:21.817Z,97736.78
2023-05-21T03:38:52.307Z,97735.97
2023-05-21T03:41:26.331Z,97729.94
2023-05-21T03:44:08.844Z,97729.13
2023-05-21T03:46:50.078Z,97738.97
2023-05-21T03:49:40.262Z,97740.84
2023-05-21T03:52:12.201Z,97743.72
2023-05-21T03:54:42.785Z,97740.53
2023-05-21T03:57:16.259Z,97748.34
2023-05-21T03:59:47.348Z,97749.03
2023-05-21T04:02:18.712Z,97752.97
2023-05-21T04:04:51.844Z,97747.03
2023-05-21T04:07:22.953Z,97753.19
2023-05-21T04:09:53.624Z,97757.44
2023-05-21T04:12:26.649Z,97758.41
2023-05-21T04:14:57.057Z,97761.25
2023-05-21T04:17:28.770Z,97761.38
2023-05-21T04:20:00.174Z,97770.00
2023-05-21T04:22:30.817Z,97771.88
2023-05-21T04:25:02.526Z,97772.00
2023-05-21T04:27:40.726Z,97782.56
2023-05-21T04:30:13.909Z,97773.78
2023-05-21T04:32:46.214Z,97775.94
2023-05-21T04:35:17.759Z,97774.03
2023-05-21T04:37:49.111Z,97784.44
2023-05-21T04:40:24.578Z,97794.25
2023-05-21T04:42:58.352Z,97784.91
2023-05-21T04:45:29.637Z,97782.31
2023-05-21T04:48:04.936Z,97788.47
2023-05-21T04:50:35.373Z,97795.31
2023-05-21T04:53:06.262Z,97801.94
2023-05-21T04:55:39.993Z,97790.00
2023-05-21T04:58:14.509Z,97783.50
2023-05-21T05:00:51.095Z,97794.75
2023-05-21T05:03:21.781Z,97794.75
2023-05-21T05:05:53.107Z,97799.94
2023-05-21T05:08:24.175Z,97801.09
2023-05-21T05:10:54.661Z,97799.13
2023-05-21T05:13:27.643Z,97796.41
2023-05-21T05:15:58.084Z,97794.03
2023-05-21T05:18:30.041Z,97788.75
2023-05-21T05:21:00.569Z,97795.59
2023-05-21T05:23:31.309Z,97796.88
2023-05-21T05:26:01.692Z,97791.34
2023-05-21T05:28:35.001Z,97793.00
2023-05-21T05:31:05.773Z,97793.94
2023-05-21T05:33:37.059Z,97798.88
2023-05-21T05:36:08.641Z,97797.69
2023-05-21T05:38:40.290Z,97790.84
2023-05-21T05:41:10.732Z,97792.63
2023-05-21T05:43:44.009Z,97799.59
2023-05-21T05:46:14.637Z,97800.19
2023-05-21T05:48:45.268Z,97800.50
2023-05-21T05:51:17.367Z,97804.66
2023-05-21T05:53:48.064Z,97796.75
2023-05-21T05:56:19.229Z,97798.38
2023-05-21T05:58:52.513Z,97795.41
2023-05-21T06:01:24.935Z,97796.59
2023-05-21T06:03:57.580Z,97797.53
2023-05-21T06:06:28.066Z,97798.00
2023-05-21T06:08:58.466Z,97787.69
2023-05-21T06:11:29.229Z,97800.16
2023-05-21T06:14:02.620Z,97801.78
2023-05-21T06:16:34.211Z,97799.06
2023-05-21T06:19:04.738Z,97801.28
2023-05-21T06:21:35.520Z,97803.06
2023-05-21T06:24:09.395Z,97801.03
2023-05-21T06:26:39.902Z,97803.28
2023-05-21T06:29:14.854Z,97802.13
2023-05-21T06:31:46.192Z,97798.22
2023-05-21T06:34:16.855Z,97798.22
2023-05-21T06:36:47.740Z,97798.94
2023-05-21T06:39:18.147Z,97802.06
2023-05-21T06:41:48.608Z,97802.06
2023-05-21T06:44:47.460Z,97804.44
2023-05-21T06:47:32.734Z,97804.44
2023-05-21T06:50:03.186Z,97804.19
2023-05-21T06:52:34.536Z,97803.13
2023-05-21T06:55:06.485Z,97799.34
2023-05-21T06:57:57.027Z,97800.16
2023-05-21T07:00:30.136Z,97803.72
2023-05-21T07:03:00.891Z,97809.84
2023-05-21T07:05:32.331Z,97807.72
2023-05-21T07:08:02.679Z,97807.97
2023-05-21T07:10:33.469Z,97809.34
2023-05-21T07:13:03.895Z,97812.16
2023-05-21T07:15:37.421Z,97811.59
2023-05-21T07:18:08.100Z,97815.16
2023-05-21T07:20:38.722Z,97813.56
2023-05-21T07:23:10.953Z,97817.94
2023-05-21T07:25:41.601Z,97808.94
2023-05-21T07:28:12.135Z,97821.81
2023-05-21T07:30:45.200Z,97818.81
2023-05-21T07:33:20.829Z,97809.84
2023-05-21T07:35:52.551Z,97813.84
2023-05-21T07:38:23.025Z,97804.69
2023-05-21T07:40:53.592Z,97812.69
2023-05-21T07:43:24.979Z,97816.56
2023-05-21T07:45:58.229Z,97812.75
2023-05-21T07:48:29.916Z,97806.44
2023-05-21T07:51:04.335Z,97805.94
2023-05-21T07:53:35.569Z,97805.69
2023-05-21T07:56:10.099Z,97805.97
2023-05-21T07:58:40.807Z,97801.09
2023-05-21T08:01:14.562Z,97801.25
2023-05-21T08:03:45.276Z,97808.56
2023-05-21T08:06:15.948Z,97806.53
2023-05-21T08:08:47.085Z,97803.78
2023-05-21T08:11:18.980Z,97802.47
2023-05-21T08:13:49.778Z,97800.16
2023-05-21T08:16:23.805Z,97800.31
2023-05-21T08:18:54.622Z,97796.66
2023-05-21T08:21:26.526Z,97800.66
2023-05-21T08:23:57.343Z,97801.63
2023-05-21T08:26:28.797Z,97806.69
2023-05-21T08:28:59.539Z,97793.81
2023-05-21T08:31:32.644Z,97802.63
2023-05-21T08:34:03.463Z,97806.88
2023-05-21T08:36:50.121Z,97804.56
2023-05-21T08:39:39.165Z,97804.00
2023-05-21T08:42:35.169Z,97798.94
2023-05-21T08:45:10.200Z,97807.72
2023-05-21T08:47:46.821Z,97812.41
2023-05-21T08:50:21.258Z,97809.50
2023-05-21T08:52:53.269Z,97802.09
2023-05-21T08:55:24.350Z,97801.56
2023-05-21T08:57:57.927Z,97807.34
2023-05-21T09:00:29.347Z,97803.38
2023-05-21T09:03:07.814Z,97802.53
2023-05-21T09:05:42.014Z,97807.88
2023-05-21T09:08:21.878Z,97805.28
2023-05-21T09:11:04.672Z,97811.19
2023-05-21T09:13:41.877Z,97818.47
2023-05-21T09:16:18.003Z,97812.69
2023-05-21T09:18:52.568Z,97817.88
2023-05-21T09:21:31.586Z,97821.47
2023-05-21T09:24:17.633Z,97808.78
2023-05-21T09:26:48.241Z,97815.69
2023-05-21T09:29:18.754Z,97819.66
2023-05-21T09:31:49.336Z,97819.38
2023-05-21T09:34:25.784Z,97816.88
2023-05-21T09:37:01.740Z,97815.91
2023-05-21T09:39:33.677Z,97813.84
2023-05-21T09:42:07.064Z,97809.81
2023-05-21T09:44:38.431Z,97813.66
2023-05-21T09:47:09.702Z,97815.28
2023-05-21T09:49:46.597Z,97814.28
2023-05-21T09:52:16.938Z,97811.13
2023-05-21T09:54:48.588Z,97812.72
2023-05-21T09:57:19.148Z,97807.72
2023-05-21T09:59:53.998Z,97801.91
2023-05-21T10:02:26.704Z,97802.44
2023-05-21T10:05:01.156Z,97811.28
2023-05-21T10:07:32.054Z,97797.97
2023-05-21T10:10:04.525Z,97805.53
2023-05-21T10:12:36.396Z,97802.63
2023-05-21T10:15:11.409Z,97801.31
2023-05-21T10:17:43.956Z,97792.56
2023-05-21T10:20:17.638Z,97803.53
2023-05-21T10:22:48.444Z,97795.78
2023-05-21T10:25:19.630Z,97791.94
2023-05-21T10:27:51.411Z,97787.56
2023-05-21T10:30:22.005Z,97787.50
2023-05-21T10:32:53.269Z,97790.97
2023-05-21T10:35:27.720Z,97793.28
2023-05-21T10:38:00.650Z,97789.38
2023-05-21T10:40:31.164Z,97790.84
2023-05-21T10:43:45.155Z,97794.97
2023-05-21T10:46:49.324Z,97790.09
2023-05-21T10:49:41.866Z,97786.72
2023-05-21T10:52:32.703Z,97779.53
2023-05-21T10:55:20.576Z,97785.63
2023-05-21T10:58:34.624Z,97776.00
2023-05-21T11:01:06.012Z,97773.75
2023-05-21T11:03:38.032Z,97766.22
2023-05-21T11:06:09.283Z,97770.16
2023-05-21T11:08:53.817Z,97777.06
2023-05-21T11:11:48.713Z,97783.53
2023-05-21T11:14:39.901Z,97775.84
2023-05-21T11:17:19.197Z,97780.78
2023-05-21T11:19:51.655Z,97777.50
2023-05-21T11:22:26.749Z,97777.88
2023-05-21T11:25:04.697Z,97778.56
2023-05-21T11:27:36.886Z,97778.38
2023-05-21T11:30:09.774Z,97777.25
2023-05-21T11:33:04.278Z,97780.06
2023-05-21T11:35:39.233Z,97777.63
2023-05-21T11:38:12.815Z,97771.03
2023-05-21T11:40:55.675Z,97774.47
2023-05-21T11:43:26.373Z,97763.66
2023-05-21T11:45:57.041Z,97760.19
2023-05-21T11:48:29.934Z,97767.25
2023-05-21T11:51:01.768Z,97760.50
2023-05-21T11:53:33.434Z,97759.06
2023-05-21T11:56:10.134Z,97768.56
2023-05-21T11:58:40.569Z,97765.09
2023-05-21T12:01:11.010Z,97765.41
2023-05-21T12:03:41.719Z,97759.81
2023-05-21T12:06:12.392Z,97760.47
2023-05-21T12:08:43.314Z,97766.31
2023-05-21T12:11:16.553Z,97764.66
2023-05-21T12:13:47.200Z,97778.28
2023-05-21T12:16:18.225Z,97763.75
2023-05-21T12:18:48.855Z,97766.84
2023-05-21T12:21:20.148Z,97762.88
2023-05-21T12:23:50.550Z,97762.31
2023-05-21T12:26:25.698Z,97763.78
2023-05-21T12:28:57.626Z,97757.16
2023-05-21T12:31:28.236Z,97764.03
2023-05-21T12:33:58.928Z,97757.13
2023-05-21T12:36:32.034Z,97756.00
2023-05-21T12:39:02.681Z,97759.31
2023-05-21T12:41:35.741Z,97751.22
2023-05-21T12:44:08.944Z,97754.94
2023-05-21T12:46:39.518Z,97758.06
2023-05-21T12:49:10.016Z,97759.38
2023-05-21T12:51:43.750Z,97757.66
2023-05-21T12:54:17.460Z,97749.34
2023-05-21T12:56:50.571Z,97757.53
2023-05-21T12:59:21.007Z,97754.19
2023-05-21T13:01:51.670Z,97755.38
2023-05-21T13:04:23.535Z,97753.13
2023-05-21T13:06:53.980Z,97749.59
2023-05-21T13:09:24.769Z,97750.63
2023-05-21T13:11:57.802Z,97755.38
2023-05-21T13:14:28.222Z,97742.72
2023-05-21T13:16:58.893Z,97749.72
2023-05-21T13:19:29.786Z,97754.72
2023-05-21T13:22:00.548Z,97748.16
2023-05-21T13:24:31.060Z,97753.31
2023-05-21T13:27:04.035Z,97756.22
2023-05-21T13:29:36.003Z,97748.84
2023-05-21T13:32:06.704Z,97744.97
2023-05-21T13:34:37.062Z,97749.19
2023-05-21T13:37:07.421Z,97743.22
2023-05-21T13:39:37.830Z,97750.91
2023-05-21T13:42:11.054Z,97752.25
2023-05-21T13:44:41.943Z,97756.63
2023-05-21T13:47:12.631Z,97748.84
2023-05-21T13:49:43.262Z,97751.19
2023-05-21T13:52:14.812Z,97748.91
2023-05-21T13:54:46.165Z,97751.59
2023-05-21T13:57:19.579Z,97752.88
2023-05-21T13:59:50.757Z,97745.00
2023-05-21T14:02:21.478Z,97751.16
2023-05-21T14:04:51.938Z,97742.38
2023-05-21T14:07:22.730Z,97746.88
2023-05-21T14:09:53.233Z,97740.81
2023-05-21T14:12:26.931Z,97741.00
2023-05-21T14:14:57.474Z,97749.78
2023-05-21T14:17:27.993Z,97738.34
2023-05-21T14:19:58.659Z,97742.66
2023-05-21T14:22:29.299Z,97742.88
2023-05-21T14:24:59.686Z,97742.44
2023-05-21T14:27:32.751Z,97743.47
2023-05-21T14:30:03.310Z,97744.88
2023-05-21T14:32:33.804Z,97745.91
2023-05-21T14:35:04.472Z,97735.47
2023-05-21T14:37:34.887Z,97739.91
2023-05-21T14:40:05.661Z,97746.03
2023-05-21T14:42:38.811Z,97737.41
2023-05-21T14:45:18.119Z,97736.81
2023-05-21T14:47:50.567Z,97742.28
2023-05-21T14:50:21.893Z,97731.47
2023-05-21T14:52:52.383Z,97732.50
2023-05-21T14:55:22.807Z,97732.28
2023-05-21T14:57:56.231Z,97728.41
2023-05-21T15:00:26.771Z,97733.53
2023-05-21T15:02:57.695Z,97718.63
2023-05-21T15:05:31.595Z,97722.34
2023-05-21T15:08:04.132Z,97726.19
2023-05-21T15:10:34.483Z,97727.41
2023-05-21T15:13:07.715Z,97723.56
2023-05-21T15:15:39.131Z,97721.72
2023-05-21T15:18:09.936Z,97721.94
2023-05-21T15:20:40.406Z,97713.22
2023-05-21T15:25:44.056Z,97713.81
2023-05-21T15:28:17.213Z,97712.41
2023-05-21T15:30:47.814Z,97717.31
2023-05-21T15:33:18.153Z,97710.22
2023-05-21T15:35:48.944Z,97706.19
2023-05-21T15:38:19.552Z,97700.91
2023-05-21T15:40:51.291Z,97702.13
2023-05-21T15:43:24.350Z,97705.38
2023-05-21T15:45:55.000Z,97707.84
2023-05-21T15:48:25.841Z,97705.81
2023-05-21T15:50:56.548Z,97698.88
2023-05-21T15:53:27.107Z,97707.84
2023-05-21T15:55:57.571Z,97711.13
2023-05-21T15:58:31.334Z,97712.34
2023-05-21T16:01:01.990Z,97707.25
2023-05-21T16:03:32.451Z,97706.19
2023-05-21T16:06:04.448Z,97709.06
2023-05-21T16:08:35.046Z,97707.84
2023-05-21T16:11:05.541Z,97705.81
2023-05-21T16:13:38.777Z,97707.44
2023-05-21T16:16:10.772Z,97706.00
2023-05-21T16:18:41.201Z,97700.91
2023-05-21T16:21:11.757Z,97710.28
2023-05-21T16:23:42.330Z,97708.22
2023-05-21T16:26:14.008Z,97708.66
2023-05-21T16:28:47.079Z,97699.03
2023-05-21T16:31:17.524Z,97705.78
2023-05-21T16:33:47.941Z,97707.00
2023-05-21T16:36:18.356Z,97708.22
2023-05-21T16:38:48.792Z,97701.28
2023-05-21T16:41:20.761Z,97702.91
2023-05-21T16:43:55.246Z,97705.38
2023-05-21T16:46:25.682Z,97702.72
2023-05-21T16:48:56.281Z,97696.19
2023-05-21T16:51:26.694Z,97693.53
2023-05-21T16:53:57.428Z,97699.66
2023-05-21T16:56:28.163Z,97691.69
2023-05-21T16:59:01.465Z,97695.72
2023-05-21T17:01:32.044Z,97699.56
2023-05-21T17:04:02.684Z,97701.22
2023-05-21T17:06:34.126Z,97707.13
2023-05-21T17:09:04.546Z,97702.81
2023-05-21T17:11:35.145Z,97693.28
2023-05-21T17:14:08.235Z,97699.56
2023-05-21T17:16:38.863Z,97692.22
2023-05-21T17:19:09.330Z,97691.38
2023-05-21T17:21:39.802Z,97684.84
2023-05-21T17:24:10.540Z,97685.03
2023-05-21T17:26:40.940Z,97687.09
2023-05-21T17:29:13.987Z,97695.03
2023-05-21T17:31:44.634Z,97691.53
2023-05-21T17:34:15.201Z,97694.78
2023-05-21T17:36:45.966Z,97697.00
2023-05-21T17:39:16.517Z,97699.22
2023-05-21T17:41:47.729Z,97702.66
2023-05-21T17:44:21.844Z,97701.41
2023-05-21T17:46:53.089Z,97703.84
2023-05-21T17:49:23.700Z,97704.19
2023-05-21T17:51:56.346Z,97699.09
2023-05-21T17:54:26.838Z,97700.69
2023-05-21T17:56:57.201Z,97709.00
2023-05-21T17:59:30.276Z,97707.34
2023-05-21T18:02:02.799Z,97708.13
2023-05-21T18:04:33.279Z,97707.28
2023-05-21T18:07:03.719Z,97707.84
2023-05-21T18:09:34.328Z,97710.06
2023-05-21T18:12:07.152Z,97710.44
2023-05-21T18:14:40.300Z,97710.59
2023-05-21T18:17:10.941Z,97714.84
2023-05-21T18:19:41.305Z,97714.78
2023-05-21T18:22:11.822Z,97721.59
2023-05-21T18:24:42.292Z,97716.72
2023-05-21T18:27:12.664Z,97712.38
2023-05-21T18:29:47.135Z,97719.59
2023-05-21T18:32:18.029Z,97716.41
2023-05-21T18:34:48.664Z,97719.75
2023-05-21T18:37:19.652Z,97716.78
2023-05-21T18:39:50.048Z,97730.50
2023-05-21T18:42:20.432Z,97719.25
2023-05-21T18:44:54.541Z,97729.31
2023-05-21T18:47:25.465Z,97725.88
2023-05-21T18:49:55.905Z,97722.88
2023-05-21T18:52:26.398Z,97722.31
2023-05-21T18:54:57.567Z,97727.88
2023-05-21T18:57:27.943Z,97726.28
2023-05-21T19:00:00.997Z,97734.31
2023-05-21T19:02:31.721Z,97739.94
2023-05-21T19:05:03.011Z,97740.03
2023-05-21T19:07:33.844Z,97745.28
2023-05-21T19:10:04.396Z,97740.28
2023-05-21T19:12:36.350Z,97748.56
2023-05-21T19:15:14.034Z,97742.00
2023-05-21T19:17:44.550Z,97746.00
2023-05-21T19:20:26.807Z,97747.88
2023-05-21T19:22:57.960Z,97748.75
2023-05-21T19:25:29.066Z,97758.22
2023-05-21T19:28:01.028Z,97750.03
2023-05-21T19:30:36.522Z,97755.78
2023-05-21T19:33:07.338Z,97757.31
2023-05-21T19:35:38.042Z,97754.06
2023-05-21T19:38:08.906Z,97758.22
2023-05-21T19:40:39.448Z,97759.91
2023-05-21T19:43:09.860Z,97775.31
2023-05-21T19:45:42.854Z,97772.06
2023-05-21T19:48:13.524Z,97769.59
2023-05-21T19:50:44.164Z,97766.84
2023-05-21T19:53:15.004Z,97765.88
2023-05-21T19:55:46.125Z,97767.38
2023-05-21T19:58:19.353Z,97764.44
2023-05-21T20:00:54.332Z,97775.94
2023-05-21T20:03:25.410Z,97776.78
2023-05-21T20:05:56.308Z,97772.84
2023-05-21T20:08:26.845Z,97782.25
2023-05-21T20:10:57.883Z,97781.78
2023-05-21T20:13:28.489Z,97778.84
2023-05-21T20:16:01.747Z,97782.00
2023-05-21T20:18:32.624Z,97783.47
2023-05-21T20:21:06.357Z,97771.16
2023-05-21T20:23:36.954Z,97782.19
2023-05-21T20:26:07.452Z,97786.13
2023-05-21T20:28:38.335Z,97785.84
2023-05-21T20:31:12.246Z,97781.91
2023-05-21T20:33:43.487Z,97782.38
2023-05-21T20:36:15.470Z,97781.53
2023-05-21T20:38:47.355Z,97782.84
2023-05-21T20:41:17.868Z,97794.88
2023-05-21T20:43:50.963Z,97784.69
2023-05-21T20:46:23.999Z,97789.13
2023-05-21T20:48:54.456Z,97784.81
2023-05-21T20:51:24.891Z,97781.88
2023-05-21T20:53:55.464Z,97779.44
2023-05-21T20:56:40.841Z,97783.19
2023-05-21T20:59:12.453Z,97778.56
2023-05-21T21:01:45.775Z,97781.88
2023-05-21T21:04:16.318Z,97784.16
2023-05-21T21:06:46.802Z,97779.38
2023-05-21T21:09:17.804Z,97783.19
2023-05-21T21:11:48.267Z,97788.44
2023-05-21T21:14:19.009Z,97776.59
2023-05-21T21:16:52.027Z,97790.38
2023-05-21T21:19:22.821Z,97788.75
2023-05-21T21:21:54.268Z,97792.16
2023-05-21T21:24:24.756Z,97793.28
2023-05-21T21:26:55.445Z,97790.31
2023-05-21T21:29:26.376Z,97793.25
2023-05-21T21:32:00.303Z,97792.75
2023-05-21T21:34:30.819Z,97786.19
2023-05-21T21:37:01.521Z,97789.78
2023-05-21T21:39:31.939Z,97788.78
2023-05-21T21:42:02.643Z,97784.97
2023-05-21T21:44:33.341Z,97790.56
2023-05-21T21:47:06.562Z,97784.31
2023-05-21T21:49:37.617Z,97791.31
2023-05-21T21:52:09.033Z,97793.06
2023-05-21T21:54:39.839Z,97788.81
2023-05-21T21:57:10.336Z,97795.34
2023-05-21T21:59:41.623Z,97808.13
2023-05-21T22:02:14.688Z,97802.84
2023-05-21T22:04:45.173Z,97805.75
2023-05-21T22:07:18.089Z,97803.66
2023-05-21T22:09:48.851Z,97802.50
2023-05-21T22:12:19.277Z,97802.22
2023-05-21T22:14:49.633Z,97801.84
2023-05-21T22:17:23.588Z,97803.47
2023-05-21T22:19:53.952Z,97801.28
2023-05-21T22:22:26.183Z,97812.06
2023-05-21T22:24:57.159Z,97796.72
2023-05-21T22:27:27.973Z,97806.78
2023-05-21T22:29:58.707Z,97802.44
2023-05-21T22:32:31.684Z,97802.63
2023-05-21T22:35:02.921Z,97809.44
2023-05-21T22:37:37.477Z,97816.22
2023-05-21T22:40:09.404Z,97808.13
2023-05-21T22:42:40.004Z,97811.47
2023-05-21T22:45:12.641Z,97811.69
2023-05-21T22:47:45.898Z,97802.91
2023-05-21T22:50:16.872Z,97807.25
2023-05-21T22:52:47.325Z,97808.34
2023-05-21T22:55:18.913Z,97811.69
2023-05-21T22:57:49.718Z,97808.41
2023-05-21T23:00:21.966Z,97804.56
2023-05-21T23:02:55.150Z,97810.38
2023-05-21T23:05:28.314Z,97807.63
2023-05-21T23:08:01.854Z,97807.38
2023-05-21T23:10:32.470Z,97808.75
2023-05-21T23:13:02.990Z,97809.31
2023-05-21T23:15:33.936Z,97800.78
2023-05-21T23:18:07.960Z,97810.03
2023-05-21T23:20:42.645Z,97801.09
2023-05-21T23:23:13.015Z,97796.44
2023-05-21T23:25:46.787Z,97800.00
2023-05-21T23:28:17.962Z,97802.78
2023-05-21T23:30:48.717Z,97803.88
2023-05-21T23:33:21.732Z,97808.00
2023-05-21T23:35:52.241Z,97807.22
2023-05-21T23:38:22.799Z,97802.25
2023-05-21T23:40:53.370Z,97816.56
2023-05-21T23:43:23.766Z,97811.06
2023-05-21T23:45:54.145Z,97809.13
2023-05-21T23:48:27.164Z,97807.75
2023-05-21T23:50:57.894Z,97809.94
2023-05-21T23:53:28.607Z,97811.59
2023-05-21T23:55:59.095Z,97808.97
2023-05-21T23:58:29.568Z,97809.41
